createdAt,value
2022-10-31T00:00:23.301Z,11.19
2022-10-31T00:03:25.788Z,11.21
2022-10-31T00:06:28.416Z,11.01
2022-10-31T00:09:30.344Z,10.98
2022-10-31T00:12:32.377Z,10.81
2022-10-31T00:15:35.902Z,10.51
2022-10-31T00:18:37.887Z,10.42
2022-10-31T00:21:39.907Z,10.20
2022-10-31T00:24:41.782Z,10.33
2022-10-31T00:27:43.710Z,10.22
2022-10-31T00:30:47.185Z,10.32
2022-10-31T00:33:49.190Z,10.40
2022-10-31T00:36:51.145Z,10.52
2022-10-31T00:39:53.706Z,10.63
2022-10-31T00:42:55.670Z,10.55
2022-10-31T00:45:59.643Z,10.52
2022-10-31T00:49:01.715Z,10.68
2022-10-31T00:52:03.748Z,10.72
2022-10-31T00:55:05.998Z,10.70
2022-10-31T00:58:08.047Z,10.71
2022-10-31T01:01:11.508Z,10.67
2022-10-31T01:04:13.470Z,10.83
2022-10-31T01:07:15.467Z,10.93
2022-10-31T01:10:17.825Z,11.03
2022-10-31T01:13:19.750Z,11.07
2022-10-31T01:16:25.101Z,10.64
2022-10-31T01:19:27.084Z,10.33
2022-10-31T01:22:29.362Z,10.40
2022-10-31T01:25:31.259Z,10.56
2022-10-31T01:28:33.779Z,10.69
2022-10-31T01:31:40.175Z,10.46
2022-10-31T01:34:42.256Z,10.58
2022-10-31T01:37:44.239Z,10.57
2022-10-31T01:40:46.177Z,10.68
2022-10-31T01:43:51.449Z,10.72
2022-10-31T01:46:57.929Z,10.74
2022-10-31T01:50:03.825Z,10.62
2022-10-31T01:53:08.657Z,10.67
2022-10-31T01:56:11.184Z,10.65
2022-10-31T01:59:17.352Z,10.64
2022-10-31T02:02:21.103Z,10.48
2022-10-31T02:05:26.780Z,10.41
2022-10-31T02:08:30.292Z,10.53
2022-10-31T02:11:33.636Z,10.35
2022-10-31T02:14:37.377Z,10.36
2022-10-31T02:17:40.859Z,10.46
2022-10-31T02:20:51.358Z,10.53
2022-10-31T02:24:18.420Z,10.62
2022-10-31T02:27:42.303Z,10.69
2022-10-31T02:31:01.470Z,10.68
2022-10-31T02:34:14.074Z,10.62
2022-10-31T02:37:22.102Z,10.66
2022-10-31T02:40:28.271Z,10.57
2022-10-31T02:43:37.363Z,10.23
2022-10-31T02:46:49.011Z,10.20
2022-10-31T02:49:58.320Z,10.37
2022-10-31T02:53:00.012Z,10.40
2022-10-31T02:56:07.498Z,10.49
2022-10-31T02:59:09.456Z,10.51
2022-10-31T03:02:33.869Z,10.53
2022-10-31T03:05:49.011Z,10.48
2022-10-31T03:08:59.715Z,10.38
2022-10-31T03:12:07.979Z,10.28
2022-10-31T03:15:15.320Z,9.89
2022-10-31T03:18:26.757Z,9.87
2022-10-31T03:21:34.954Z,9.85
2022-10-31T03:24:40.174Z,9.91
2022-10-31T03:27:43.421Z,9.88
2022-10-31T03:30:46.987Z,9.63
2022-10-31T03:33:52.223Z,9.49
2022-10-31T03:36:57.902Z,9.28
2022-10-31T03:40:02.060Z,9.29
2022-10-31T03:43:08.895Z,9.26
2022-10-31T03:46:11.472Z,9.31
2022-10-31T03:49:16.312Z,9.45
2022-10-31T03:52:25.562Z,9.37
2022-10-31T03:55:31.659Z,9.31
2022-10-31T03:58:37.997Z,9.22
2022-10-31T04:01:44.272Z,9.32
2022-10-31T04:04:50.204Z,9.49
2022-10-31T04:07:56.003Z,9.20
2022-10-31T04:11:00.317Z,9.10
2022-10-31T04:14:05.789Z,9.09
2022-10-31T04:17:12.497Z,9.11
2022-10-31T04:20:18.550Z,9.31
2022-10-31T04:23:23.473Z,9.34
2022-10-31T04:26:25.892Z,9.48
2022-10-31T04:29:27.837Z,9.42
2022-10-31T04:32:29.851Z,9.40
2022-10-31T04:35:33.289Z,9.43
2022-10-31T04:38:35.283Z,9.55
2022-10-31T04:41:37.213Z,9.25
2022-10-31T04:44:39.157Z,9.12
2022-10-31T04:47:41.314Z,9.04
2022-10-31T04:50:44.764Z,9.08
2022-10-31T04:53:46.752Z,9.10
2022-10-31T04:56:48.696Z,9.00
2022-10-31T04:59:50.613Z,8.96
2022-10-31T05:02:54.366Z,8.99
2022-10-31T05:05:57.658Z,9.01
2022-10-31T05:08:59.656Z,8.98
2022-10-31T05:12:01.580Z,8.85
2022-10-31T05:15:03.850Z,8.66
2022-10-31T05:18:05.952Z,8.57
2022-10-31T05:21:09.329Z,8.57
2022-10-31T05:24:11.379Z,8.59
2022-10-31T05:27:13.384Z,8.72
2022-10-31T05:30:18.074Z,8.77
2022-10-31T05:33:19.998Z,8.86
2022-10-31T05:36:23.392Z,9.06
2022-10-31T05:39:25.732Z,9.26
2022-10-31T05:42:27.685Z,9.31
2022-10-31T05:45:29.656Z,9.15
2022-10-31T05:48:31.621Z,9.16
2022-10-31T05:51:36.094Z,8.89
2022-10-31T05:54:38.114Z,8.58
2022-10-31T05:57:40.226Z,8.64
2022-10-31T06:00:42.259Z,8.64
2022-10-31T06:03:44.192Z,8.72
2022-10-31T06:06:47.980Z,8.86
2022-10-31T06:09:49.993Z,8.89
2022-10-31T06:12:51.884Z,8.85
2022-10-31T06:15:54.048Z,8.80
2022-10-31T06:18:55.991Z,8.76
2022-10-31T06:21:59.569Z,8.92
2022-10-31T06:25:01.504Z,9.13
2022-10-31T06:28:03.464Z,9.25
2022-10-31T06:31:05.766Z,9.36
2022-10-31T06:34:07.955Z,9.32
2022-10-31T06:37:13.090Z,9.43
2022-10-31T06:40:15.012Z,9.36
2022-10-31T06:43:16.938Z,9.42
2022-10-31T06:46:18.991Z,9.49
2022-10-31T06:49:21.012Z,9.57
2022-10-31T06:52:24.372Z,9.65
2022-10-31T06:55:27.538Z,9.72
2022-10-31T06:58:29.472Z,9.79
2022-10-31T07:01:31.590Z,9.88
2022-10-31T07:04:33.969Z,9.95
2022-10-31T07:07:37.391Z,10.01
2022-10-31T07:10:41.031Z,10.06
2022-10-31T07:13:43.144Z,10.11
2022-10-31T07:16:45.082Z,10.19
2022-10-31T07:19:47.012Z,10.21
2022-10-31T07:22:50.799Z,10.19
2022-10-31T07:25:56.355Z,10.19
2022-10-31T07:28:58.377Z,10.25
2022-10-31T07:32:00.291Z,10.38
2022-10-31T07:35:02.274Z,10.46
2022-10-31T07:38:13.098Z,10.57
2022-10-31T07:41:15.061Z,10.65
2022-10-31T07:44:16.999Z,10.72
2022-10-31T07:47:18.914Z,10.75
2022-10-31T07:50:22.883Z,10.83
2022-10-31T07:53:26.146Z,10.90
2022-10-31T07:56:28.168Z,10.96
2022-10-31T07:59:30.237Z,11.02
2022-10-31T08:02:32.178Z,11.10
2022-10-31T08:05:34.704Z,11.20
2022-10-31T08:08:38.511Z,11.26
2022-10-31T08:11:40.575Z,11.32
2022-10-31T08:14:42.589Z,11.40
2022-10-31T08:17:44.595Z,11.47
2022-10-31T08:20:46.547Z,11.52
2022-10-31T08:23:49.857Z,11.58
2022-10-31T08:26:52.982Z,11.62
2022-10-31T08:29:54.904Z,11.67
2022-10-31T08:33:01.719Z,11.79
2022-10-31T08:36:03.700Z,11.84
2022-10-31T08:39:07.052Z,11.95
2022-10-31T08:42:08.995Z,12.02
2022-10-31T08:45:11.154Z,12.09
2022-10-31T08:48:15.662Z,12.20
2022-10-31T08:51:17.630Z,12.36
2022-10-31T08:54:20.934Z,12.40
2022-10-31T08:57:22.926Z,12.46
2022-10-31T09:00:25.251Z,12.54
2022-10-31T09:03:28.792Z,12.59
2022-10-31T09:06:30.779Z,12.67
2022-10-31T09:09:34.346Z,12.71
2022-10-31T09:12:36.293Z,12.74
2022-10-31T09:15:41.237Z,12.82
2022-10-31T09:18:43.410Z,12.88
2022-10-31T09:21:45.316Z,12.97
2022-10-31T09:24:48.627Z,13.05
2022-10-31T09:27:50.546Z,13.15
2022-10-31T09:30:54.124Z,13.25
2022-10-31T09:33:56.040Z,13.32
2022-10-31T09:36:58.067Z,13.44
2022-10-31T09:40:01.766Z,13.66
2022-10-31T09:43:16.453Z,13.75
2022-10-31T09:46:30.422Z,13.81
2022-10-31T09:49:42.807Z,13.94
2022-10-31T09:52:51.839Z,14.12
2022-10-31T09:55:56.291Z,14.21
2022-10-31T09:59:00.910Z,14.23
2022-10-31T10:02:06.563Z,14.23
2022-10-31T10:05:14.044Z,14.62
2022-10-31T10:08:20.762Z,14.87
2022-10-31T10:11:47.001Z,15.04
2022-10-31T10:15:00.373Z,15.18
2022-10-31T10:18:10.192Z,15.36
2022-10-31T10:21:25.957Z,15.30
2022-10-31T10:24:44.893Z,15.23
2022-10-31T10:27:58.402Z,15.07
2022-10-31T10:31:04.761Z,15.09
2022-10-31T10:34:18.032Z,15.12
2022-10-31T10:37:27.592Z,15.23
2022-10-31T10:40:30.480Z,15.29
2022-10-31T10:43:35.515Z,15.35
2022-10-31T10:46:42.604Z,15.38
2022-10-31T10:49:50.842Z,15.29
2022-10-31T10:53:02.131Z,15.30
2022-10-31T10:56:15.412Z,15.21
2022-10-31T10:59:21.852Z,15.31
2022-10-31T11:02:26.048Z,15.34
2022-10-31T11:05:35.332Z,15.47
2022-10-31T11:08:37.877Z,15.68
2022-10-31T11:11:40.210Z,15.92
2022-10-31T11:14:48.448Z,16.09
2022-10-31T11:17:52.459Z,16.26
2022-10-31T11:20:56.541Z,16.44
2022-10-31T11:24:04.272Z,16.76
2022-10-31T11:27:14.892Z,17.11
2022-10-31T11:30:18.322Z,17.11
2022-10-31T11:33:25.434Z,17.13
2022-10-31T11:36:31.779Z,17.25
2022-10-31T11:39:41.229Z,17.34
2022-10-31T11:42:44.004Z,17.34
2022-10-31T11:45:47.592Z,17.39
2022-10-31T11:48:52.737Z,17.47
2022-10-31T11:51:57.559Z,17.62
2022-10-31T11:55:02.232Z,17.51
2022-10-31T11:58:05.326Z,17.62
2022-10-31T12:01:25.131Z,17.62
2022-10-31T12:04:38.214Z,17.63
2022-10-31T12:07:40.205Z,17.45
2022-10-31T12:10:54.280Z,17.56
2022-10-31T12:14:07.923Z,17.53
2022-10-31T12:17:16.549Z,17.50
2022-10-31T12:20:26.767Z,17.49
2022-10-31T12:23:40.782Z,17.52
2022-10-31T12:26:55.574Z,17.55
2022-10-31T12:30:11.351Z,17.62
2022-10-31T12:33:38.259Z,17.59
2022-10-31T12:36:50.950Z,17.58
2022-10-31T12:40:03.110Z,17.62
2022-10-31T12:43:20.699Z,17.70
2022-10-31T12:46:33.994Z,17.69
2022-10-31T12:49:50.697Z,17.75
2022-10-31T12:53:02.675Z,17.79
2022-10-31T12:56:25.081Z,17.86
2022-10-31T12:59:32.915Z,17.92
2022-10-31T13:02:40.213Z,17.89
2022-10-31T13:05:47.520Z,17.90
2022-10-31T13:08:53.870Z,17.89
2022-10-31T13:11:59.831Z,17.96
2022-10-31T13:15:06.951Z,17.92
2022-10-31T13:18:28.867Z,17.92
2022-10-31T13:21:41.217Z,17.91
2022-10-31T13:24:48.128Z,17.98
2022-10-31T13:27:55.148Z,18.09
2022-10-31T13:30:57.097Z,18.13
2022-10-31T13:34:04.892Z,18.26
2022-10-31T13:37:17.626Z,18.22
2022-10-31T13:40:31.723Z,18.18
2022-10-31T13:43:54.155Z,18.13
2022-10-31T13:46:57.699Z,18.20
2022-10-31T13:50:19.505Z,18.18
2022-10-31T13:53:36.064Z,18.16
2022-10-31T13:56:38.077Z,18.19
2022-10-31T13:59:40.152Z,18.16
2022-10-31T14:02:48.779Z,18.09
2022-10-31T14:05:54.908Z,18.05
2022-10-31T14:08:58.285Z,17.98
2022-10-31T14:12:05.554Z,17.94
2022-10-31T14:15:17.035Z,17.85
2022-10-31T14:18:29.884Z,17.81
2022-10-31T14:21:38.573Z,17.77
2022-10-31T14:24:42.025Z,17.67
2022-10-31T14:27:48.077Z,17.62
2022-10-31T14:30:54.324Z,17.53
2022-10-31T14:33:56.356Z,17.48
2022-10-31T14:37:31.352Z,17.39
2022-10-31T14:40:43.485Z,17.29
2022-10-31T14:44:11.206Z,17.24
2022-10-31T14:47:23.029Z,17.14
2022-10-31T14:50:35.463Z,17.10
2022-10-31T14:53:46.424Z,16.99
2022-10-31T14:56:53.457Z,16.95
2022-10-31T15:00:03.656Z,16.91
2022-10-31T15:03:13.361Z,16.88
2022-10-31T15:06:17.743Z,16.83
2022-10-31T15:09:24.166Z,16.76
2022-10-31T15:12:30.135Z,16.73
2022-10-31T15:15:33.951Z,16.60
2022-10-31T15:18:36.021Z,16.52
2022-10-31T15:21:43.105Z,16.48
2022-10-31T15:24:45.923Z,16.45
2022-10-31T15:27:50.803Z,16.43
2022-10-31T15:30:54.656Z,16.44
2022-10-31T15:34:01.375Z,16.39
2022-10-31T15:37:03.441Z,16.39
2022-10-31T15:40:12.972Z,16.31
2022-10-31T15:43:17.504Z,16.28
2022-10-31T15:46:19.497Z,16.18
2022-10-31T15:49:30.048Z,16.13
2022-10-31T15:52:35.373Z,16.03
2022-10-31T15:55:46.406Z,16.01
2022-10-31T15:58:52.563Z,15.94
2022-10-31T16:02:02.889Z,15.87
2022-10-31T16:05:18.113Z,15.74
2022-10-31T16:08:25.688Z,15.70
2022-10-31T16:11:35.845Z,15.67
2022-10-31T16:14:41.007Z,15.56
2022-10-31T16:17:46.150Z,15.57
2022-10-31T16:20:51.184Z,15.56
2022-10-31T16:23:58.318Z,15.50
2022-10-31T16:27:04.602Z,15.36
2022-10-31T16:30:36.840Z,15.28
2022-10-31T16:33:38.944Z,15.25
2022-10-31T16:36:40.964Z,15.14
2022-10-31T16:39:42.917Z,15.10
2022-10-31T16:42:46.260Z,15.09
2022-10-31T16:45:52.280Z,15.08
2022-10-31T16:48:55.060Z,15.06
2022-10-31T16:51:57.219Z,15.04
2022-10-31T16:54:59.817Z,15.02
2022-10-31T16:58:03.063Z,14.98
2022-10-31T17:01:08.787Z,14.95
2022-10-31T17:04:14.438Z,14.92
2022-10-31T17:07:16.749Z,14.92
2022-10-31T17:10:18.848Z,14.91
2022-10-31T17:13:24.310Z,14.89
2022-10-31T17:16:27.732Z,14.78
2022-10-31T17:19:29.846Z,14.70
2022-10-31T17:22:32.323Z,14.65
2022-10-31T17:25:34.347Z,14.64
2022-10-31T17:28:36.529Z,14.64
2022-10-31T17:31:40.256Z,14.61
2022-10-31T17:34:42.808Z,14.62
2022-10-31T17:37:46.243Z,14.57
2022-10-31T17:43:56.019Z,14.50
2022-10-31T17:46:59.639Z,14.46
2022-10-31T17:50:02.297Z,14.46
2022-10-31T17:53:04.610Z,14.44
2022-10-31T17:56:09.275Z,14.39
2022-10-31T17:59:11.532Z,14.38
2022-10-31T18:02:17.372Z,14.37
2022-10-31T18:05:19.473Z,14.29
2022-10-31T18:08:25.490Z,14.27
2022-10-31T18:11:27.795Z,14.24
2022-10-31T18:14:29.803Z,14.23
2022-10-31T18:17:35.880Z,14.22
2022-10-31T18:20:40.142Z,14.20
2022-10-31T18:23:43.381Z,14.19
2022-10-31T18:26:45.667Z,14.15
2022-10-31T18:29:47.957Z,14.15
2022-10-31T18:32:52.243Z,14.13
2022-10-31T18:35:54.876Z,14.13
2022-10-31T18:38:57.217Z,14.10
2022-10-31T18:41:59.556Z,14.05
2022-10-31T18:45:11.400Z,14.05
2022-10-31T18:48:21.411Z,14.03
2022-10-31T18:51:24.188Z,14.00
2022-10-31T18:54:26.862Z,13.96
2022-10-31T18:57:30.993Z,13.94
2022-10-31T19:00:33.103Z,13.94
2022-10-31T19:03:37.202Z,13.93
2022-10-31T19:06:39.303Z,13.89
2022-10-31T19:09:42.155Z,13.87
2022-10-31T19:12:44.524Z,13.86
2022-10-31T19:15:47.746Z,13.83
2022-10-31T19:18:54.353Z,13.81
2022-10-31T19:21:57.137Z,13.79
2022-10-31T19:25:03.006Z,13.69
2022-10-31T19:28:09.133Z,13.69
2022-10-31T19:31:11.509Z,13.68
2022-10-31T19:34:18.234Z,13.66
2022-10-31T19:37:29.887Z,13.64
2022-10-31T19:40:32.141Z,13.57
2022-10-31T19:43:34.157Z,13.58
2022-10-31T19:46:53.359Z,13.58
2022-10-31T19:49:58.693Z,13.55
2022-10-31T19:53:00.875Z,13.48
2022-10-31T19:56:03.339Z,13.47
2022-10-31T19:59:05.344Z,13.43
2022-10-31T20:02:07.712Z,13.38
2022-10-31T20:05:14.632Z,13.39
2022-10-31T20:08:18.192Z,13.39
2022-10-31T20:11:20.731Z,13.32
2022-10-31T20:14:23.218Z,13.30
2022-10-31T20:17:25.718Z,13.24
2022-10-31T20:20:29.722Z,13.22
2022-10-31T20:23:32.173Z,13.15
2022-10-31T20:26:35.088Z,13.12
2022-10-31T20:29:37.041Z,13.10
2022-10-31T20:32:39.074Z,13.13
2022-10-31T20:35:44.473Z,13.11
2022-10-31T20:38:46.996Z,13.06
2022-10-31T20:41:49.632Z,13.01
2022-10-31T20:44:51.982Z,13.05
2022-10-31T20:47:54.814Z,12.94
2022-10-31T20:51:00.238Z,12.93
2022-10-31T20:54:02.228Z,13.01
2022-10-31T20:57:04.339Z,12.90
2022-10-31T21:00:10.137Z,12.93
2022-10-31T21:03:13.005Z,13.05
2022-10-31T21:06:18.287Z,12.97
2022-10-31T21:09:20.439Z,13.01
2022-10-31T21:12:22.638Z,13.00
2022-10-31T21:15:25.323Z,13.01
2022-10-31T21:18:27.931Z,12.98
2022-10-31T21:21:34.559Z,13.01
2022-10-31T21:24:36.549Z,13.00
2022-10-31T21:27:38.879Z,12.99
2022-10-31T21:30:41.557Z,13.01
2022-10-31T21:33:45.808Z,12.97
2022-10-31T21:36:49.225Z,12.94
2022-10-31T21:39:51.174Z,12.92
2022-10-31T21:42:53.225Z,12.93
2022-10-31T21:45:55.288Z,12.90
2022-10-31T21:48:57.920Z,12.88
2022-10-31T21:52:01.276Z,12.84
2022-10-31T21:55:03.497Z,12.84
2022-10-31T21:58:05.443Z,12.78
2022-10-31T22:01:07.603Z,12.74
2022-10-31T22:04:10.220Z,12.71
2022-10-31T22:07:13.531Z,12.72
2022-10-31T22:10:15.566Z,12.69
2022-10-31T22:13:17.471Z,12.70
2022-10-31T22:16:21.804Z,12.67
2022-10-31T22:19:23.748Z,12.61
2022-10-31T22:22:27.131Z,12.66
2022-10-31T22:25:29.065Z,12.55
2022-10-31T22:28:31.616Z,12.56
2022-10-31T22:31:34.372Z,12.49
2022-10-31T22:34:36.307Z,12.58
2022-10-31T22:37:39.609Z,12.55
2022-10-31T22:40:41.683Z,12.46
2022-10-31T22:43:43.777Z,12.46
2022-10-31T22:46:45.681Z,12.45
2022-10-31T22:49:47.715Z,12.38
2022-10-31T22:52:51.154Z,12.38
2022-10-31T22:55:53.027Z,12.36
2022-10-31T22:58:55.292Z,12.42
2022-10-31T23:01:57.357Z,12.41
2022-10-31T23:04:59.506Z,12.42
2022-10-31T23:08:03.436Z,12.32
2022-10-31T23:11:14.701Z,12.32
2022-10-31T23:14:18.819Z,12.27
2022-10-31T23:17:20.739Z,12.24
2022-10-31T23:20:24.128Z,12.20
2022-10-31T23:23:27.529Z,12.16
2022-10-31T23:26:29.443Z,12.17
2022-10-31T23:29:31.505Z,12.15
2022-10-31T23:32:35.394Z,12.10
2022-10-31T23:35:37.464Z,12.11
2022-10-31T23:38:41.811Z,12.14
2022-10-31T23:41:43.822Z,12.10
2022-10-31T23:44:46.418Z,12.11
2022-10-31T23:47:48.361Z,12.12
2022-10-31T23:50:50.341Z,11.81
2022-10-31T23:53:53.631Z,11.90
2022-10-31T23:56:56.105Z,11.88
2022-10-31T23:59:58.369Z,11.85
